createdAt,value
2022-10-23T00:07:57.393Z,2.88
2022-10-23T00:22:59.550Z,2.45
2022-10-23T00:38:01.454Z,2.38
2022-10-23T00:53:03.859Z,2.55
2022-10-23T04:30:31.027Z,2.58
2022-10-23T04:45:33.127Z,2.70
2022-10-23T05:00:35.431Z,2.95
2022-10-23T05:15:37.753Z,3.00
2022-10-23T05:30:40.131Z,3.30
2022-10-23T05:45:42.777Z,3.40
2022-10-23T06:00:56.011Z,3.30
2022-10-23T06:16:19.465Z,3.30
2022-10-23T06:31:26.743Z,3.30
2022-10-23T06:46:33.041Z,3.20
2022-10-23T07:01:37.986Z,3.47
2022-10-23T07:16:41.598Z,3.08
2022-10-23T07:31:44.852Z,3.13
2022-10-23T07:47:07.060Z,2.80
2022-10-23T08:02:14.185Z,2.88
2022-10-23T08:17:17.398Z,3.10
2022-10-23T08:32:41.773Z,2.88
2022-10-23T08:47:46.695Z,2.85
2022-10-23T09:03:10.196Z,2.90
2022-10-23T09:18:13.985Z,3.10
2022-10-23T09:33:21.761Z,3.40
2022-10-23T09:48:23.691Z,3.00
2022-10-23T10:03:25.647Z,3.40
2022-10-23T10:18:47.455Z,3.03
2022-10-23T10:33:52.832Z,2.95
2022-10-23T10:49:02.196Z,2.75
2022-10-23T11:04:18.911Z,2.60
2022-10-23T11:19:26.665Z,3.13
2022-10-23T11:34:28.626Z,3.38
2022-10-23T11:49:30.554Z,3.08
2022-10-23T12:04:38.761Z,2.45
2022-10-23T12:19:48.624Z,2.60
2022-10-23T12:35:22.835Z,2.70
2022-10-23T12:50:29.575Z,2.72
2022-10-23T13:05:31.977Z,2.72
2022-10-23T13:20:52.269Z,2.70
2022-10-23T13:36:07.669Z,2.60
2022-10-23T13:51:13.513Z,2.40
2022-10-23T14:06:15.425Z,2.40
2022-10-23T14:21:19.960Z,2.40
2022-10-23T14:36:22.198Z,2.92
2022-10-23T14:51:30.138Z,2.80
2022-10-23T15:06:32.976Z,2.75
2022-10-23T15:21:34.972Z,2.50
2022-10-23T15:36:37.068Z,2.60
2022-10-23T15:51:39.140Z,2.40
2022-10-23T16:06:41.093Z,2.90
2022-10-23T16:21:43.060Z,2.90
2022-10-23T16:36:45.216Z,2.53
2022-10-23T16:51:47.161Z,2.55
2022-10-23T17:06:49.094Z,2.88
2022-10-23T17:21:51.039Z,2.63
2022-10-23T17:36:53.819Z,2.50
2022-10-23T17:51:57.040Z,3.00
2022-10-23T18:06:58.943Z,2.95
2022-10-23T18:22:00.968Z,2.90
2022-10-23T18:37:03.030Z,2.80
2022-10-23T18:52:05.148Z,2.78
2022-10-23T19:07:07.077Z,2.92
2022-10-23T19:22:09.203Z,2.88
2022-10-23T19:37:11.249Z,3.08
2022-10-23T19:52:13.235Z,2.90
2022-10-23T20:07:15.233Z,3.03
2022-10-23T20:22:17.134Z,3.10
2022-10-23T20:37:19.053Z,2.85
2022-10-23T20:52:22.131Z,3.20
2022-10-23T21:07:24.132Z,3.10
2022-10-23T21:22:26.036Z,2.90
2022-10-23T21:37:27.971Z,3.00
2022-10-23T21:52:29.891Z,3.05
2022-10-23T22:07:31.945Z,3.20
2022-10-23T22:22:33.859Z,3.40
2022-10-23T22:37:35.799Z,2.90
2022-10-23T22:52:37.699Z,3.10
2022-10-23T23:07:39.663Z,3.28
2022-10-23T23:22:41.832Z,3.28
2022-10-23T23:37:43.966Z,2.88
2022-10-23T23:52:45.883Z,3.13
